Shipman, Illinois
Current Conditions -  °F | °C
As of 5:35 AM on Sunday 23 Nov 2014 (Local Time) from KALN Reporting Station
Broken Clouds Broken Clouds  
Wind Chill: 52°   Ceiling: 11000
Heat Index: 52°   Visibility: 10mi
Dew Point: 45°   Wind: 7mph
Humidity: 76%   Direction: 150°SSE
Pressure: 29.76"   Gusts: NA
Location:  39.12°N, 90.04°W
Report Text: KALN 231135Z AUTO 15006KT 10SM BKN110 11/07 A2976 RMK AO2 T01120071
Loading
Personal Weather Stations






























Interactive Weather Map New forecast layout! Learn more

10-Day Weather Forecast

Advertisements
Track Severe Weather on mobile